• Join FlightAware (Why Join?)
  • Login
  • US Flag 
12:34PM EDT


 

Airport Tracker/Info


-or-


 

Live Flight TrackerFlight Track Log ✈ UAL4206 ✈ 02-Jan-2014 ✈ KDEN - KTUL

Flight Track Log - Related Links

Times and Time Zones

All times are in EST time to prevent confusion due to time zone crossing. See the UAL4206 flight status page for this flight to view local times or setup timezone preferences in your user account.

Time Position Orientation Groundspeed Altitude Reporting Facility
EST Latitude Longitude Course Direction KTS MPH feet Rate Location/Type
04:17PM 39.8833 -104.6000 118° Southeast 178 205 6,700  Level Denver TRACON
04:18PM 39.8500 -104.5167 117° Southeast 255 293 8,100 1,800 Climbing Denver TRACON
04:19PM 39.8308 -104.4544 112° Southeast 282 325 9,900 2,160 Climbing Denver Center
04:20PM 39.8094 -104.3489 105° East 313 360 12,000 1,860 Climbing Denver Center
04:21PM 39.7958 -104.2181 98° East 341 392 13,800 1,500 Climbing Denver Center
04:22PM 39.7808 -104.0831 98° East 376 433 15,200 1,320 Climbing Denver Center
04:23PM 39.7631 -103.9308 99° East 396 456 16,600 1,200 Climbing Denver Center
04:24PM 39.7456 -103.7806 99° East 421 484 17,800 1,080 Climbing Denver Center
04:25PM 39.7311 -103.6144 96° East 417 480 18,900 1,140 Climbing Denver Center
04:26PM 39.7192 -103.4572 96° East 434 499 20,200 1,200 Climbing Denver Center
04:27PM 39.7011 -103.2992 98° East 441 507 21,400 1,140 Climbing Denver Center
04:28PM 39.6689 -103.1422 105° East 447 514 22,600 1,140 Climbing Denver Center
04:29PM 39.6397 -102.9839 103° East 452 520 23,800 1,140 Climbing Denver Center
04:30PM 39.6103 -102.8256 104° East 451 519 25,000 1,260 Climbing Denver Center
04:31PM 39.5719 -102.6344 105° East 456 525 26,500 1,260 Climbing Denver Center
04:32PM 39.5422 -102.4764 104° East 453 521 27,700 1,080 Climbing Denver Center
04:33PM 39.5128 -102.3289 104° East 453 521 28,800 1,200 Climbing Denver Center
04:34PM 39.4797 -102.1536 104° East 451 519 30,200 1,200 Climbing Denver Center
04:35PM 39.4500 -102.0044 104° East 450 518 31,400 1,200 Climbing Denver Center
04:36PM 39.4144 -101.8286 105° East 452 520 32,700 1,200 Climbing Denver Center
04:37PM 39.3789 -101.6803 107° East 455 524 33,900 1,080 Climbing Denver Center
04:38PM 39.3039 -101.5250 122° Southeast 459 528 35,000 480 Climbing Denver Center
04:39PM 39.2383 -101.3900 122° Southeast 463 533 35,000  Level Denver Center
04:40PM 39.1550 -101.2247 123° Southeast 489 563 35,000  Level Denver Center
04:41PM 39.0831 -101.0811 123° Southeast 497 572 35,000  Level Denver Center
04:42PM 39.0028 -100.9239 123° Southeast 496 571 35,000  Level Denver Center
04:44PM 38.9325 -100.7833 123° Southeast 489 563 35,000  Level Denver Center
04:45PM 38.8511 -100.6222 123° Southeast 483 556 35,000  Level Denver Center
04:46PM 38.7792 -100.4817 123° Southeast 488 562 35,000  Level Denver Center
04:46PM 38.7175 -100.3611 123° Southeast 495 570 35,000  Level Kansas City Center
04:47PM 38.6444 -100.2192 123° Southeast 497 572 35,000  Level Kansas City Center
04:48PM 38.5586 -100.0531 123° Southeast 498 573 35,000  Level Kansas City Center
04:49PM 38.4844 -99.9114 124° Southeast 500 575 35,000  Level Kansas City Center
04:50PM 38.3981 -99.7469 124° Southeast 499 574 35,000  Level Kansas City Center
04:51PM 38.3225 -99.6047 124° Southeast 501 577 35,000  Level Kansas City Center
04:53PM 38.2389 -99.4433 123° Southeast 503 579 35,000  Level Kansas City Center
04:54PM 38.1606 -99.2978 124° Southeast 502 578 35,000  Level Kansas City Center
04:55PM 38.0828 -99.1500 124° Southeast 502 578 35,000  Level Kansas City Center
04:56PM 38.0044 -99.0031 124° Southeast 504 580 35,000  Level Kansas City Center
04:57PM 37.9253 -98.8569 124° Southeast 504 580 35,000  Level Kansas City Center
04:58PM 37.8475 -98.7111 124° Southeast 503 579 35,000  Level Kansas City Center
04:59PM 37.7533 -98.5364 124° Southeast 506 582 35,000  Level Kansas City Center
05:00PM 37.6744 -98.3919 125° Southeast 503 579 35,000  Level Kansas City Center
05:01PM 37.5950 -98.2469 125° Southeast 506 582 35,000  Level Kansas City Center
05:02PM 37.5161 -98.1033 125° Southeast 505 581 35,000  Level Kansas City Center
05:03PM 37.4353 -97.9583 125° Southeast 507 583 35,000  Level Kansas City Center
05:04PM 37.3394 -97.7839 125° Southeast 509 586 35,000  Level Kansas City Center
05:05PM 37.2583 -97.6383 125° Southeast 509 586 35,000 -660 Level Kansas City Center
05:06PM 37.1772 -97.4958 126° Southeast 508 585 33,700 -1,860 Descending Kansas City Center
05:07PM 37.0964 -97.3542 126° Southeast 503 579 31,200 -2,760 Descending Kansas City Center
05:08PM 37.0200 -97.2097 123° Southeast 502 578 28,100 -3,300 Descending Kansas City Center
05:09PM 36.9203 -97.0456 127° Southeast 498 573 24,500 -3,060 Descending Kansas City Center
05:10PM 36.8411 -96.8981 124° Southeast 497 572 21,900 -2,520 Descending Kansas City Center
05:11PM 36.7606 -96.7558 125° Southeast 484 557 19,300 -2,340 Descending Kansas City Center
05:12PM 36.6847 -96.6267 126° Southeast 469 540 17,100 -2,280 Descending Kansas City Center
05:13PM 36.6142 -96.5014 125° Southeast 448 516 14,600 -2,400 Descending Kansas City Center
05:13PM 36.5983 -96.4764 128° Southeast 439 505 14,200 -2,460 Descending Kansas City Center
05:14PM 36.5433 -96.3811 126° Southeast 438 504 12,100 -2,580 Descending Kansas City Center
05:14PM 36.5350 -96.3672 127° Southeast 431 496 11,900 -1,260 Descending Kansas City Center
05:15PM 36.4803 -96.2719 126° Southeast 403 464 10,800 -1,320 Descending Kansas City Center
05:15PM 36.4719 -96.2608 133° Southeast 370 426 10,600 -900 Descending Kansas City Center
05:16PM 36.4250 -96.1778 125° Southeast 350 403 9,900 -900 Descending Kansas City Center
05:16PM 36.4181 -96.1664 127° Southeast 311 358 9,700 -1,920 Descending Kansas City Center
05:17PM 36.3692 -96.0844 127° Southeast 290 334 8,000 -1,380 Descending Kansas City Center
05:17PM 36.3758 -96.0942 310° West 314 361 8,300 -1,800 Climbing Kansas City Center
05:18PM 36.2944 -96.0422 153° Southeast 283 326 6,200 -2,040 Descending Kansas City Center
05:18PM 36.2961 -96.0411 28° Northeast 292 336 6,200 -240 Level Kansas City Center
05:19PM 36.2175 -96.0261 171° South 279 321 6,000 -240 Descending Kansas City Center
05:19PM 36.2183 -96.0267 332° Northwest 282 325 6,000 -900 Level Kansas City Center
05:20PM 36.1428 -96.0125 171° South 273 314 5,100 -900 Descending Kansas City Center
05:20PM 36.1403 -96.0111 156° South 283 326 5,100 -1,500 Level Kansas City Center
05:21PM 36.0756 -95.9850 162° South 267 307 3,600 -1,500 Descending Kansas City Center
05:21PM 36.0742 -95.9817 117° Southeast 276 318 3,600 -240 Level Kansas City Center
05:22PM 36.0756 -95.9125 89° East 214 246 3,400 -240 Descending Kansas City Center
05:22PM 36.0767 -95.9044 80° East 246 283 3,400 -840 Level Kansas City Center
05:23PM 36.1114 -95.8897 19° North 135 155 2,600 -900 Descending Kansas City Center
05:23PM 36.1156 -95.8872 26° Northeast 182 209 2,500 -1,020 Descending Kansas City Center
05:24PM 36.1492 -95.8875 360° North 122 140 1,600 -1,020 Descending Kansas City Center
05:25PM 36.1533 -95.8856 21° North 151 174 1,500 -660 Descending Kansas City Center
05:26PM 36.1917 -95.8828 North 140 161 800 -720 Descending Kansas City Center